createdAt,value
2018-06-22T00:00:25.550Z,22.5
2018-06-22T00:01:25.366Z,22.5
2018-06-22T00:02:25.317Z,22.5
2018-06-22T00:03:25.535Z,22.5
2018-06-22T00:04:25.460Z,22.5
2018-06-22T00:05:25.741Z,22.5
2018-06-22T00:06:25.487Z,22.5
2018-06-22T00:07:25.554Z,22.5
2018-06-22T00:08:25.458Z,22.5
2018-06-22T00:09:25.704Z,22.5
2018-06-22T00:10:25.497Z,22.5
2018-06-22T00:11:25.338Z,22.5
2018-06-22T00:12:25.647Z,22.5
2018-06-22T00:13:25.527Z,22.5
2018-06-22T00:14:25.463Z,22.5
2018-06-22T00:15:25.507Z,22.5
2018-06-22T00:16:25.581Z,22.5
2018-06-22T00:17:25.459Z,22.5
2018-06-22T00:18:25.528Z,22.5
2018-06-22T00:19:25.423Z,22.5
2018-06-22T00:20:25.384Z,22.5
2018-06-22T00:21:25.660Z,22.5
2018-06-22T00:22:25.315Z,22.5
2018-06-22T00:23:25.494Z,22.5
2018-06-22T00:24:25.468Z,22.5
2018-06-22T00:25:25.383Z,22.5
2018-06-22T00:26:25.338Z,22.5
2018-06-22T00:27:25.526Z,22.5
2018-06-22T00:28:25.582Z,22.5
2018-06-22T00:29:25.287Z,22.5
2018-06-22T00:30:25.606Z,22.5
2018-06-22T00:31:25.370Z,22.5
2018-06-22T00:32:25.351Z,22.5
2018-06-22T00:33:25.771Z,22.5
2018-06-22T00:34:25.390Z,22.5
2018-06-22T00:35:25.384Z,22.25
2018-06-22T00:36:25.466Z,22.5
2018-06-22T00:37:25.358Z,22.5
2018-06-22T00:38:25.346Z,22.5
2018-06-22T00:39:25.509Z,22.5
2018-06-22T00:40:25.518Z,22.5
2018-06-22T00:41:25.310Z,22.5
2018-06-22T00:42:25.393Z,22.5
2018-06-22T00:43:25.381Z,22.25
2018-06-22T00:44:25.690Z,22.5
2018-06-22T00:45:25.379Z,22.5
2018-06-22T00:46:25.549Z,22.5
2018-06-22T00:47:25.421Z,22.5
2018-06-22T00:48:25.280Z,22.5
2018-06-22T00:49:25.295Z,22.25
2018-06-22T00:50:25.534Z,22.5
2018-06-22T00:51:25.779Z,22.5
2018-06-22T00:52:25.522Z,22.5
2018-06-22T00:53:25.331Z,22.5
2018-06-22T00:54:25.554Z,22.5
2018-06-22T00:55:25.508Z,22.5
2018-06-22T00:56:25.320Z,22.25
2018-06-22T00:57:25.467Z,22.25
2018-06-22T00:58:25.281Z,22.25
2018-06-22T00:59:25.407Z,22.25
2018-06-22T01:00:25.375Z,22.5
2018-06-22T01:01:25.578Z,22.5
2018-06-22T01:02:25.457Z,22.25
2018-06-22T01:03:25.500Z,22.25
2018-06-22T01:04:25.401Z,22.25
2018-06-22T01:05:25.474Z,22.5
2018-06-22T01:06:25.625Z,22.25
2018-06-22T01:07:25.307Z,22.25
2018-06-22T01:08:25.497Z,22.25
2018-06-22T01:09:25.551Z,22.5
2018-06-22T01:10:25.456Z,22.25
2018-06-22T01:11:25.331Z,22.25
2018-06-22T01:12:25.575Z,22.5
2018-06-22T01:13:25.415Z,22.25
2018-06-22T01:14:25.278Z,22.25
2018-06-22T01:15:25.451Z,22.25
2018-06-22T01:16:25.599Z,22.25
2018-06-22T01:17:25.515Z,22.25
2018-06-22T01:18:25.705Z,22.5
2018-06-22T01:19:25.673Z,22.25
2018-06-22T01:20:25.487Z,22.25
2018-06-22T01:21:25.571Z,22.25
2018-06-22T01:22:25.496Z,22.25
2018-06-22T01:23:25.436Z,22.25
2018-06-22T01:24:25.680Z,22.25
2018-06-22T01:25:25.357Z,22.25
2018-06-22T01:26:25.551Z,22.25
2018-06-22T01:27:25.478Z,22.25
2018-06-22T01:28:25.360Z,22.25
2018-06-22T01:29:25.510Z,22.5
2018-06-22T01:30:25.579Z,22.25
2018-06-22T01:31:25.472Z,22.25
2018-06-22T01:32:25.366Z,22.25
2018-06-22T01:33:25.572Z,22.25
2018-06-22T01:34:25.389Z,22.25
2018-06-22T01:35:25.400Z,22.25
2018-06-22T01:36:25.411Z,22.5
2018-06-22T01:37:25.574Z,22.25
2018-06-22T01:38:25.295Z,22.25
2018-06-22T01:39:25.565Z,22.25
2018-06-22T01:40:25.476Z,22.25
2018-06-22T01:41:25.589Z,22.25
2018-06-22T01:42:25.493Z,22.25
2018-06-22T01:43:25.518Z,22.25
2018-06-22T01:44:25.553Z,22.25
2018-06-22T01:45:25.522Z,22.25
2018-06-22T01:46:25.430Z,22.25
2018-06-22T01:47:25.355Z,22.25
2018-06-22T01:48:25.633Z,22.25
2018-06-22T01:49:25.499Z,22.25
2018-06-22T01:50:25.499Z,22.25
2018-06-22T01:51:25.477Z,22.25
2018-06-22T01:52:25.464Z,22.25
2018-06-22T01:53:25.451Z,22.25
2018-06-22T01:54:25.549Z,22.25
2018-06-22T01:55:25.352Z,22.25
2018-06-22T01:56:25.344Z,22.25
2018-06-22T01:57:25.416Z,22.25
2018-06-22T01:58:25.418Z,22.25
2018-06-22T01:59:25.512Z,22.25
2018-06-22T02:00:25.489Z,22.25
2018-06-22T02:01:25.518Z,22.25
2018-06-22T02:02:25.512Z,22.25
2018-06-22T02:03:25.681Z,22.25
2018-06-22T02:04:25.277Z,22.25
2018-06-22T02:05:25.315Z,22.25
2018-06-22T02:06:25.437Z,22.25
2018-06-22T02:07:25.314Z,22.25
2018-06-22T02:08:25.344Z,22.25
2018-06-22T02:09:25.334Z,22.25
2018-06-22T02:10:25.489Z,22.25
2018-06-22T02:11:25.423Z,22.25
2018-06-22T02:12:25.338Z,22.25
2018-06-22T02:13:25.479Z,22.25
2018-06-22T02:14:25.265Z,22.25
2018-06-22T02:15:25.459Z,22.25
2018-06-22T02:16:25.467Z,22.25
2018-06-22T02:17:25.675Z,22.25
2018-06-22T02:18:25.518Z,22.25
2018-06-22T02:19:25.384Z,22.25
2018-06-22T02:20:25.385Z,22.25
2018-06-22T02:21:25.328Z,22.25
2018-06-22T02:22:25.393Z,22.25
2018-06-22T02:23:25.313Z,22.25
2018-06-22T02:24:25.528Z,22.25
2018-06-22T02:25:25.455Z,22.25
2018-06-22T02:26:25.291Z,22.25
2018-06-22T02:27:25.354Z,22.25
2018-06-22T02:28:25.362Z,22.25
2018-06-22T02:29:25.373Z,22.25
2018-06-22T02:30:25.607Z,22.25
2018-06-22T02:31:25.582Z,22.25
2018-06-22T02:32:25.422Z,22.25
2018-06-22T02:33:25.413Z,22.25
2018-06-22T02:34:25.509Z,22.25
2018-06-22T02:35:25.557Z,22.25
2018-06-22T02:36:25.729Z,22.25
2018-06-22T02:37:25.322Z,22.25
2018-06-22T02:38:25.339Z,22.25
2018-06-22T02:39:25.479Z,22.25
2018-06-22T02:40:25.348Z,22.25
2018-06-22T02:41:25.300Z,22.25
2018-06-22T02:42:25.677Z,22.25
2018-06-22T02:43:25.255Z,22.25
2018-06-22T02:44:25.286Z,22.25
2018-06-22T02:45:25.602Z,22.25
2018-06-22T02:46:25.363Z,22.25
2018-06-22T02:47:25.653Z,22.25
2018-06-22T02:48:25.402Z,22.25
2018-06-22T02:49:25.411Z,22.25
2018-06-22T02:50:25.349Z,22.25
2018-06-22T02:51:25.446Z,22.25
2018-06-22T02:52:25.283Z,22.25
2018-06-22T02:53:25.369Z,22.25
2018-06-22T02:54:25.468Z,22.25
2018-06-22T02:55:25.557Z,22.25
2018-06-22T02:56:25.276Z,22.25
2018-06-22T02:57:25.432Z,22.25
2018-06-22T02:58:25.463Z,22.25
2018-06-22T02:59:25.226Z,22.25
2018-06-22T03:00:25.398Z,22.25
2018-06-22T03:01:25.315Z,22.25
2018-06-22T03:02:25.574Z,22.25
2018-06-22T03:03:25.466Z,22.25
2018-06-22T03:04:25.534Z,22.25
2018-06-22T03:05:25.322Z,22.25
2018-06-22T03:06:25.334Z,22.25
2018-06-22T03:07:25.646Z,22.25
2018-06-22T03:08:25.489Z,22.25
2018-06-22T03:09:25.467Z,22.25
2018-06-22T03:10:25.309Z,22.25
2018-06-22T03:11:25.372Z,22.25
2018-06-22T03:12:25.528Z,22.25
2018-06-22T03:13:25.615Z,22.25
2018-06-22T03:14:25.445Z,22.25
2018-06-22T03:15:25.404Z,22.25
2018-06-22T03:16:25.356Z,22.25
2018-06-22T03:17:25.359Z,22.25
2018-06-22T03:18:25.338Z,22.25
2018-06-22T03:19:55.796Z,22.25
2018-06-22T03:20:55.839Z,22.25
2018-06-22T03:21:55.722Z,22.25
2018-06-22T03:22:55.806Z,22.25
2018-06-22T03:23:55.638Z,22.25
2018-06-22T03:24:55.950Z,22.25
2018-06-22T03:25:55.791Z,22.25
2018-06-22T03:26:55.871Z,22.25
2018-06-22T03:27:55.925Z,22.25
2018-06-22T03:28:55.699Z,22.25
2018-06-22T03:29:55.794Z,22.25
2018-06-22T03:30:56.078Z,22.25
2018-06-22T03:31:56.171Z,22.25
2018-06-22T03:32:55.916Z,22.25
2018-06-22T03:33:55.658Z,22.25
2018-06-22T03:34:55.792Z,22.25
2018-06-22T03:35:55.778Z,22.25
2018-06-22T03:36:55.799Z,22.25
2018-06-22T03:37:55.908Z,22.25
2018-06-22T03:38:56.008Z,22.25
2018-06-22T03:39:55.766Z,22.25
2018-06-22T03:40:55.892Z,22.25
2018-06-22T03:41:55.847Z,22.25
2018-06-22T03:42:55.675Z,22.25
2018-06-22T03:43:55.715Z,22.25
2018-06-22T03:44:55.867Z,22.25
2018-06-22T03:45:55.919Z,22.25
2018-06-22T03:46:55.901Z,22.25
2018-06-22T03:47:56.033Z,22.25
2018-06-22T03:48:55.714Z,22.25
2018-06-22T03:49:55.770Z,22.25
2018-06-22T03:50:55.841Z,22.25
2018-06-22T03:51:55.821Z,22.25
2018-06-22T03:52:56.017Z,22.25
2018-06-22T03:53:55.930Z,22.25
2018-06-22T03:54:55.936Z,22.25
2018-06-22T03:55:55.706Z,22.25
2018-06-22T03:56:55.943Z,22.25
2018-06-22T03:57:55.773Z,22.25
2018-06-22T03:58:55.784Z,22.25
2018-06-22T03:59:55.876Z,22.25
2018-06-22T04:00:55.950Z,22.25
2018-06-22T04:01:55.929Z,22.25
2018-06-22T04:02:55.913Z,22.25
2018-06-22T04:03:55.810Z,22.25
2018-06-22T04:04:55.671Z,22.25
2018-06-22T04:05:55.817Z,22.25
2018-06-22T04:06:55.683Z,22.25
2018-06-22T04:07:55.793Z,22.25
2018-06-22T04:08:55.900Z,22.25
2018-06-22T04:09:55.921Z,22
2018-06-22T04:10:55.965Z,22
2018-06-22T04:11:55.937Z,22
2018-06-22T04:12:55.780Z,22
2018-06-22T04:13:55.837Z,21.75
2018-06-22T04:14:55.771Z,21.75
2018-06-22T04:15:55.942Z,21.75
2018-06-22T04:16:55.873Z,21.75
2018-06-22T04:17:55.627Z,21.75
2018-06-22T04:18:55.743Z,21.5
2018-06-22T04:19:55.860Z,21.5
2018-06-22T04:20:55.845Z,21.5
2018-06-22T04:21:55.910Z,21.5
2018-06-22T04:22:55.815Z,21.5
2018-06-22T04:23:55.905Z,21.5
2018-06-22T04:24:56.260Z,21.5
2018-06-22T04:25:55.941Z,21.5
2018-06-22T04:26:55.737Z,21.25
2018-06-22T04:27:55.935Z,21.25
2018-06-22T04:28:55.945Z,21.25
2018-06-22T04:29:56.007Z,21.25
2018-06-22T04:30:55.686Z,21.25
2018-06-22T04:31:55.835Z,21.25
2018-06-22T04:32:55.767Z,21.25
2018-06-22T04:33:55.833Z,21.25
2018-06-22T04:34:55.765Z,21.25
2018-06-22T04:35:55.680Z,21.25
2018-06-22T04:36:55.892Z,21.25
2018-06-22T04:37:55.946Z,21
2018-06-22T04:38:55.671Z,21
2018-06-22T04:39:55.796Z,21
2018-06-22T04:40:55.745Z,21
2018-06-22T04:41:55.824Z,21
2018-06-22T04:42:56.048Z,21
2018-06-22T04:43:55.866Z,21
2018-06-22T04:44:55.673Z,21
2018-06-22T04:45:55.788Z,21
2018-06-22T04:46:55.779Z,21
2018-06-22T04:47:55.948Z,21
2018-06-22T04:48:55.893Z,21
2018-06-22T04:49:55.662Z,21
2018-06-22T04:50:55.973Z,21
2018-06-22T04:51:55.920Z,21
2018-06-22T04:52:55.859Z,21
2018-06-22T04:53:55.761Z,21
2018-06-22T04:54:55.798Z,21
2018-06-22T04:55:55.865Z,21
2018-06-22T04:56:55.741Z,21
2018-06-22T04:57:55.774Z,20.75
2018-06-22T04:58:55.962Z,20.75
2018-06-22T04:59:55.701Z,20.75
2018-06-22T05:00:55.785Z,20.75
2018-06-22T05:01:55.882Z,20.75
2018-06-22T05:02:55.813Z,20.75
2018-06-22T05:03:55.727Z,20.75
2018-06-22T05:04:55.775Z,20.75
2018-06-22T05:05:55.740Z,20.75
2018-06-22T05:06:55.892Z,20.75
2018-06-22T05:07:55.707Z,20.75
2018-06-22T05:08:55.794Z,20.75
2018-06-22T05:09:55.699Z,20.75
2018-06-22T05:10:55.935Z,20.75
2018-06-22T05:11:55.684Z,20.75
2018-06-22T05:12:55.830Z,20.75
2018-06-22T05:13:55.749Z,20.75
2018-06-22T05:14:55.804Z,20.75
2018-06-22T05:15:55.815Z,20.75
2018-06-22T05:16:55.841Z,20.5
2018-06-22T05:17:55.849Z,20.5
2018-06-22T05:18:55.810Z,20.5
2018-06-22T05:19:56.012Z,20.5
2018-06-22T05:20:55.893Z,20.75
2018-06-22T05:21:55.978Z,20.5
2018-06-22T05:22:55.696Z,20.5
2018-06-22T05:23:55.859Z,20.5
2018-06-22T05:24:56.596Z,20.5
2018-06-22T05:25:55.744Z,20.75
2018-06-22T05:26:55.887Z,20.75
2018-06-22T05:27:55.860Z,20.5
2018-06-22T05:28:55.730Z,20.5
2018-06-22T05:29:55.793Z,20.5
2018-06-22T05:30:55.780Z,20.5
2018-06-22T05:31:55.804Z,20.5
2018-06-22T05:32:55.752Z,20.5
2018-06-22T05:33:55.690Z,20.5
2018-06-22T05:34:55.884Z,20.5
2018-06-22T05:35:56.409Z,20.5
2018-06-22T05:36:55.731Z,20.5
2018-06-22T05:37:55.812Z,20.5
2018-06-22T05:38:55.676Z,20.5
2018-06-22T05:39:55.885Z,20.5
2018-06-22T05:40:55.683Z,20.25
2018-06-22T05:41:55.680Z,20.25
2018-06-22T05:42:55.782Z,20.25
2018-06-22T05:43:55.762Z,20
2018-06-22T05:44:55.746Z,20
2018-06-22T05:45:55.698Z,20
2018-06-22T05:46:55.778Z,19.75
2018-06-22T05:47:55.688Z,19.75
2018-06-22T05:48:55.930Z,19.75
2018-06-22T05:49:55.697Z,19.75
2018-06-22T05:50:56.075Z,19.5
2018-06-22T05:51:55.674Z,19.75
2018-06-22T05:52:55.776Z,19.75
2018-06-22T05:53:55.819Z,20
2018-06-22T05:54:55.915Z,20
2018-06-22T05:55:55.732Z,20
2018-06-22T05:56:55.671Z,20
2018-06-22T05:57:55.896Z,20.25
2018-06-22T05:58:55.671Z,20.25
2018-06-22T05:59:55.896Z,20.25
2018-06-22T06:00:55.700Z,20.25
2018-06-22T06:01:55.782Z,20.25
2018-06-22T06:02:55.703Z,20.25
2018-06-22T06:03:55.731Z,20.5
2018-06-22T06:04:55.757Z,20.5
2018-06-22T06:05:55.869Z,20.5
2018-06-22T06:06:55.761Z,20.5
2018-06-22T06:07:55.945Z,20.5
2018-06-22T06:08:55.822Z,20.5
2018-06-22T06:09:55.626Z,20.5
2018-06-22T06:10:55.848Z,20.5
2018-06-22T06:11:55.848Z,20.5
2018-06-22T06:12:55.930Z,20.5
2018-06-22T06:13:55.656Z,20.75
2018-06-22T06:14:56.110Z,20.75
2018-06-22T06:15:55.787Z,20.75
2018-06-22T06:16:55.881Z,20.75
2018-06-22T06:17:55.706Z,20.75
2018-06-22T06:18:55.701Z,20.75
2018-06-22T06:19:55.993Z,20.75
2018-06-22T06:20:56.076Z,20.75
2018-06-22T06:21:55.881Z,20.75
2018-06-22T06:22:55.797Z,20.75
2018-06-22T06:23:55.808Z,20.75
2018-06-22T06:24:56.203Z,20.75
2018-06-22T06:25:55.718Z,20.75
2018-06-22T06:26:55.713Z,20.75
2018-06-22T06:28:05.830Z,20.75
2018-06-22T06:28:55.799Z,20.75
2018-06-22T06:29:55.709Z,20.75
2018-06-22T06:30:55.643Z,20.75
2018-06-22T06:31:55.814Z,20.75
2018-06-22T06:32:55.684Z,20.75
2018-06-22T06:33:55.835Z,20.75
2018-06-22T06:34:55.743Z,20.75
2018-06-22T06:35:55.837Z,20.75
2018-06-22T06:36:55.780Z,20.75
2018-06-22T06:37:55.825Z,20.75
2018-06-22T06:38:55.702Z,20.75
2018-06-22T06:39:55.728Z,20.75
2018-06-22T06:40:55.702Z,21
2018-06-22T06:41:55.877Z,21
2018-06-22T06:42:55.811Z,21
2018-06-22T06:43:55.778Z,21
2018-06-22T06:44:55.839Z,21
2018-06-22T06:45:55.737Z,21
2018-06-22T06:46:55.760Z,21
2018-06-22T06:47:55.763Z,21
2018-06-22T06:48:55.670Z,21
2018-06-22T06:49:55.653Z,21
2018-06-22T06:50:55.739Z,21
2018-06-22T06:51:55.676Z,21
2018-06-22T06:52:55.714Z,21
2018-06-22T06:53:55.725Z,21
2018-06-22T06:54:55.644Z,21
2018-06-22T06:55:55.671Z,21
2018-06-22T06:56:55.667Z,21
2018-06-22T06:57:55.641Z,21
2018-06-22T06:58:55.656Z,21
2018-06-22T06:59:55.720Z,21
2018-06-22T07:00:55.796Z,21
2018-06-22T07:01:55.732Z,21.25
2018-06-22T07:02:55.727Z,21.25
2018-06-22T07:03:55.821Z,21
2018-06-22T07:04:55.957Z,21.25
2018-06-22T07:05:55.961Z,21.25
2018-06-22T07:06:55.884Z,21.25
2018-06-22T07:07:55.652Z,21.25
2018-06-22T07:08:55.780Z,21.25
2018-06-22T07:09:55.627Z,21.25
2018-06-22T07:10:55.737Z,21.25
2018-06-22T07:11:55.870Z,21.25
2018-06-22T07:12:55.833Z,21.25
2018-06-22T07:13:55.607Z,21.25
2018-06-22T07:14:55.813Z,21.25
2018-06-22T07:15:55.935Z,21.25
2018-06-22T07:16:55.653Z,21.25
2018-06-22T07:17:55.643Z,21.25
2018-06-22T07:18:55.811Z,21.25
2018-06-22T07:19:55.899Z,21.25
2018-06-22T07:20:55.666Z,21.25
2018-06-22T07:21:55.739Z,21.25
2018-06-22T07:22:55.983Z,21.25
2018-06-22T07:23:55.666Z,21.25
2018-06-22T07:24:55.747Z,21.25
2018-06-22T07:25:55.686Z,21.5
2018-06-22T07:26:55.906Z,21.5
2018-06-22T07:27:55.593Z,21.5
2018-06-22T07:28:55.732Z,21.5
2018-06-22T07:29:55.640Z,21.5
2018-06-22T07:30:55.732Z,21.5
2018-06-22T07:31:55.656Z,21.5
2018-06-22T07:32:55.918Z,21.5
2018-06-22T07:33:56.053Z,21.5
2018-06-22T07:34:55.874Z,21.5
2018-06-22T07:35:55.894Z,21.5
2018-06-22T07:36:55.665Z,21.5
2018-06-22T07:37:55.944Z,21.5
2018-06-22T07:38:55.665Z,21.5
2018-06-22T07:39:55.700Z,21.5
2018-06-22T07:40:55.839Z,21.5
2018-06-22T07:41:55.771Z,21.5
2018-06-22T07:42:55.891Z,21.5
2018-06-22T07:43:55.918Z,21.5
2018-06-22T07:44:55.831Z,21.5
2018-06-22T07:46:05.704Z,21.5
2018-06-22T07:46:55.787Z,21.5
2018-06-22T07:47:55.650Z,21.5
2018-06-22T07:48:55.728Z,21.5
2018-06-22T07:49:56.165Z,21.5
2018-06-22T07:50:55.658Z,21.5
2018-06-22T07:51:55.817Z,21.5
2018-06-22T07:52:55.704Z,21.5
2018-06-22T07:53:55.839Z,21.5
2018-06-22T07:54:55.612Z,21.5
2018-06-22T07:55:55.683Z,21.5
2018-06-22T07:56:55.837Z,21.5
2018-06-22T07:57:56.024Z,21.5
2018-06-22T07:58:55.773Z,21.5
2018-06-22T07:59:55.759Z,21.5
2018-06-22T08:00:55.842Z,21.5
2018-06-22T08:01:55.740Z,21.5
2018-06-22T08:02:55.848Z,21.5
2018-06-22T08:04:05.705Z,21.5
2018-06-22T08:04:55.751Z,21.5
2018-06-22T08:05:55.642Z,21.5
2018-06-22T08:06:55.734Z,21.5
2018-06-22T08:07:55.825Z,21.5
2018-06-22T08:08:55.910Z,21.5
2018-06-22T08:09:55.859Z,21.5
2018-06-22T08:10:55.961Z,21.5
2018-06-22T08:11:55.744Z,21.5
2018-06-22T08:12:55.757Z,21.5
2018-06-22T08:13:55.673Z,21.5
2018-06-22T08:14:55.814Z,21.5
2018-06-22T08:15:55.795Z,21.5
2018-06-22T08:16:56.260Z,21.5
2018-06-22T08:17:55.871Z,21.5
2018-06-22T08:18:55.902Z,21.5
2018-06-22T08:19:56.370Z,21.5
2018-06-22T08:20:55.978Z,21.5
2018-06-22T08:22:15.756Z,21.5
2018-06-22T08:22:55.996Z,21.5
2018-06-22T08:23:55.731Z,21.5
2018-06-22T08:24:55.767Z,21.5
2018-06-22T08:25:55.738Z,21.5
2018-06-22T08:26:55.785Z,21.5
2018-06-22T08:27:55.782Z,21.5
2018-06-22T08:28:56.048Z,21.5
2018-06-22T08:29:56.066Z,21.5
2018-06-22T08:30:55.670Z,21.5
2018-06-22T08:31:55.733Z,21.5
2018-06-22T08:32:55.873Z,21.5
2018-06-22T08:33:55.692Z,21.5
2018-06-22T08:34:55.999Z,21.5
2018-06-22T08:35:55.873Z,21.5
2018-06-22T08:36:56.302Z,21.5
2018-06-22T08:37:55.767Z,21.5
2018-06-22T08:38:55.914Z,21.5
2018-06-22T08:39:55.732Z,21.5
2018-06-22T08:40:55.712Z,21.5
2018-06-22T08:41:56.182Z,21.5
2018-06-22T08:42:57.089Z,21.5
2018-06-22T08:43:55.794Z,21.5
2018-06-22T08:44:55.774Z,21.75
2018-06-22T08:45:55.657Z,21.75
2018-06-22T08:46:55.883Z,21.75
2018-06-22T08:47:55.966Z,21.75
2018-06-22T08:48:58.463Z,21.75
2018-06-22T08:49:55.869Z,21.75
2018-06-22T08:50:55.565Z,21.75
2018-06-22T08:51:55.620Z,21.75
2018-06-22T08:52:55.823Z,21.75
2018-06-22T08:53:55.730Z,21.75
2018-06-22T08:54:55.966Z,21.75
2018-06-22T08:55:55.804Z,21.75
2018-06-22T08:56:55.874Z,21.75
2018-06-22T08:57:55.888Z,21.75
2018-06-22T08:58:55.706Z,21.75
2018-06-22T08:59:55.670Z,21.75
2018-06-22T09:00:55.845Z,21.75
2018-06-22T09:01:55.688Z,21.75
2018-06-22T09:02:55.745Z,21.75
2018-06-22T09:03:55.677Z,21.75
2018-06-22T09:04:55.624Z,21.75
2018-06-22T09:05:55.866Z,21.75
2018-06-22T09:06:55.808Z,21.75
2018-06-22T09:07:55.838Z,21.75
2018-06-22T09:08:55.649Z,21.75
2018-06-22T09:09:55.614Z,21.75
2018-06-22T09:10:55.767Z,21.75
2018-06-22T09:11:55.862Z,21.75
2018-06-22T09:12:55.822Z,21.75
2018-06-22T09:13:55.675Z,21.75
2018-06-22T09:14:55.861Z,21.75
2018-06-22T09:15:55.729Z,21.75
2018-06-22T09:16:55.667Z,21.75
2018-06-22T09:17:55.624Z,21.75
2018-06-22T09:18:55.927Z,21.75
2018-06-22T09:19:55.698Z,21.75
2018-06-22T09:20:55.725Z,21.75
2018-06-22T09:21:55.661Z,21.75
2018-06-22T09:22:55.964Z,21.75
2018-06-22T09:23:55.822Z,21.75
2018-06-22T09:24:55.889Z,21.75
2018-06-22T09:25:55.799Z,21.75
2018-06-22T09:26:55.606Z,21.75
2018-06-22T09:27:55.672Z,21.75
2018-06-22T09:28:55.883Z,21.75
2018-06-22T09:29:55.819Z,21.75
2018-06-22T09:30:55.792Z,21.75
2018-06-22T09:31:55.709Z,21.75
2018-06-22T09:32:55.826Z,21.75
2018-06-22T09:33:55.923Z,21.75
2018-06-22T09:34:55.772Z,21.75
2018-06-22T09:35:55.656Z,21.75
2018-06-22T09:36:56.041Z,21.75
2018-06-22T09:37:55.790Z,21.75
2018-06-22T09:38:55.843Z,21.75
2018-06-22T09:39:55.696Z,21.75
2018-06-22T09:40:55.942Z,21.75
2018-06-22T09:41:55.751Z,21.75
2018-06-22T09:42:56.173Z,21.75
2018-06-22T09:43:55.811Z,21.75
2018-06-22T09:44:55.823Z,21.75
2018-06-22T09:45:55.860Z,21.75
2018-06-22T09:46:55.899Z,21.75
2018-06-22T09:47:56.048Z,21.75
2018-06-22T09:48:55.651Z,21.75
2018-06-22T09:49:55.672Z,21.75
2018-06-22T09:50:55.802Z,21.75
2018-06-22T09:51:55.830Z,21.75
2018-06-22T09:52:55.959Z,21.75
2018-06-22T09:53:55.573Z,21.75
2018-06-22T09:54:55.605Z,21.75
2018-06-22T09:55:55.700Z,21.75
2018-06-22T09:56:55.746Z,21.75
2018-06-22T09:57:55.796Z,21.75
2018-06-22T09:58:55.644Z,21.75
2018-06-22T09:59:55.622Z,21.75
2018-06-22T10:00:55.641Z,21.75
2018-06-22T10:01:55.934Z,21.75
2018-06-22T10:02:55.618Z,21.75
2018-06-22T10:03:55.869Z,21.75
2018-06-22T10:04:55.971Z,21.75
2018-06-22T10:05:56.427Z,21.75
2018-06-22T10:06:55.751Z,21.75
2018-06-22T10:07:55.682Z,21.75
2018-06-22T10:08:55.666Z,21.75
2018-06-22T10:09:55.782Z,21.75
2018-06-22T10:10:55.832Z,21.75
2018-06-22T10:11:55.556Z,21.75
2018-06-22T10:12:55.596Z,21.75
2018-06-22T10:13:56.223Z,21.75
2018-06-22T10:14:55.740Z,21.75
2018-06-22T10:15:55.824Z,21.75
2018-06-22T10:16:55.639Z,21.75
2018-06-22T10:17:55.775Z,21.75
2018-06-22T10:18:55.612Z,21.75
2018-06-22T10:19:55.739Z,21.75
2018-06-22T10:20:55.654Z,21.75
2018-06-22T10:21:55.695Z,21.75
2018-06-22T10:22:55.640Z,21.75
2018-06-22T10:23:55.674Z,21.75
2018-06-22T10:24:55.692Z,21.75
2018-06-22T10:25:55.645Z,21.75
2018-06-22T10:26:55.928Z,21.75
2018-06-22T10:27:55.786Z,21.75
2018-06-22T10:28:55.887Z,21.75
2018-06-22T10:29:55.656Z,21.75
2018-06-22T10:30:55.927Z,21.75
2018-06-22T10:31:55.698Z,21.75
2018-06-22T10:32:55.723Z,21.75
2018-06-22T10:33:56.399Z,21.75
2018-06-22T10:34:56.191Z,21.75
2018-06-22T10:35:55.956Z,21.75
2018-06-22T10:36:55.942Z,21.75
2018-06-22T10:37:55.732Z,21.75
2018-06-22T10:38:55.786Z,21.75
2018-06-22T10:39:55.895Z,21.75
2018-06-22T10:40:55.813Z,21.75
2018-06-22T10:41:55.809Z,21.75
2018-06-22T10:42:55.811Z,21.75
2018-06-22T10:43:55.673Z,21.75
2018-06-22T10:44:55.797Z,21.75
2018-06-22T10:45:56.054Z,21.75
2018-06-22T10:46:55.824Z,21.75
2018-06-22T10:47:55.709Z,21.75
2018-06-22T10:48:55.868Z,21.75
2018-06-22T10:49:55.885Z,21.75
2018-06-22T10:50:55.990Z,21.75
2018-06-22T10:51:55.865Z,21.75
2018-06-22T10:52:56.017Z,21.75
2018-06-22T10:53:55.819Z,21.75
2018-06-22T10:54:55.702Z,21.75
2018-06-22T10:55:55.637Z,21.75
2018-06-22T10:56:55.730Z,21.75
2018-06-22T10:57:55.625Z,21.75
2018-06-22T10:58:55.902Z,21.75
2018-06-22T10:59:55.918Z,21.75
2018-06-22T11:00:55.695Z,21.75
2018-06-22T11:01:55.922Z,21.75
2018-06-22T11:02:55.828Z,21.75
2018-06-22T11:03:55.960Z,21.75
2018-06-22T11:04:56.073Z,21.75
2018-06-22T11:05:55.670Z,21.75
2018-06-22T11:06:55.853Z,21.75
2018-06-22T11:07:55.742Z,21.75
2018-06-22T11:08:55.662Z,21.75
2018-06-22T11:09:55.769Z,21.75
2018-06-22T11:10:55.779Z,21.75
2018-06-22T11:11:55.693Z,21.75
2018-06-22T11:12:55.747Z,21.75
2018-06-22T11:13:55.948Z,21.75
2018-06-22T11:14:55.741Z,21.75
2018-06-22T11:15:55.789Z,21.75
2018-06-22T11:16:55.967Z,21.75
2018-06-22T11:17:55.624Z,21.75
2018-06-22T11:18:55.827Z,21.75
2018-06-22T11:19:55.678Z,21.75
2018-06-22T11:20:55.791Z,21.75
2018-06-22T11:21:55.849Z,21.75
2018-06-22T11:22:55.788Z,21.75
2018-06-22T11:24:05.626Z,21.75
2018-06-22T11:24:56.382Z,21.75
2018-06-22T11:25:55.859Z,21.75
2018-06-22T11:26:55.647Z,21.75
2018-06-22T11:27:55.642Z,21.75
2018-06-22T11:28:55.798Z,21.75
2018-06-22T11:29:55.705Z,21.75
2018-06-22T11:30:56.712Z,21.75
2018-06-22T11:31:55.876Z,21.75
2018-06-22T11:32:55.709Z,21.75
2018-06-22T11:33:55.760Z,21.75
2018-06-22T11:34:55.663Z,21.75
2018-06-22T11:35:55.636Z,21.75
2018-06-22T11:36:55.826Z,21.75
2018-06-22T11:37:55.869Z,21.75
2018-06-22T11:38:55.666Z,21.75
2018-06-22T11:39:55.742Z,21.75
2018-06-22T11:40:55.866Z,21.75
2018-06-22T11:41:55.560Z,21.75
2018-06-22T11:42:55.672Z,21.75
2018-06-22T11:43:55.780Z,21.75
2018-06-22T11:44:55.695Z,21.75
2018-06-22T11:45:55.735Z,21.75
2018-06-22T11:46:55.942Z,21.75
2018-06-22T11:47:55.856Z,21.75
2018-06-22T11:48:55.693Z,21.75
2018-06-22T11:49:55.930Z,21.75
2018-06-22T11:50:55.566Z,21.75
2018-06-22T11:51:55.591Z,21.75
2018-06-22T11:52:55.772Z,21.75
2018-06-22T11:53:55.776Z,21.75
2018-06-22T11:54:55.709Z,21.75
2018-06-22T11:55:55.823Z,21.75
2018-06-22T11:56:55.906Z,21.75
2018-06-22T11:57:55.745Z,21.75
2018-06-22T11:58:55.681Z,21.75
2018-06-22T12:00:05.698Z,21.75
2018-06-22T12:00:55.901Z,21.75
2018-06-22T12:01:55.895Z,21.75
2018-06-22T12:02:55.770Z,21.75
2018-06-22T12:03:55.789Z,21.75
2018-06-22T12:04:55.755Z,21.75
2018-06-22T12:05:55.733Z,21.75
2018-06-22T12:06:55.596Z,21.75
2018-06-22T12:07:55.718Z,21.75
2018-06-22T12:08:55.679Z,21.75
2018-06-22T12:09:55.854Z,21.75
2018-06-22T12:10:55.799Z,21.75
2018-06-22T12:11:55.769Z,21.75
2018-06-22T12:12:56.140Z,21.75
2018-06-22T12:13:55.748Z,21.75
2018-06-22T12:14:55.700Z,21.75
2018-06-22T12:15:55.891Z,21.75
2018-06-22T12:16:55.736Z,21.75
2018-06-22T12:17:55.652Z,21.75
2018-06-22T12:18:55.583Z,21.75
2018-06-22T12:19:55.622Z,21.75
2018-06-22T12:20:55.617Z,21.75
2018-06-22T12:21:55.760Z,21.75
2018-06-22T12:22:55.898Z,21.75
2018-06-22T12:23:55.682Z,21.75
2018-06-22T12:24:55.632Z,21.75
2018-06-22T12:25:55.632Z,21.75
2018-06-22T12:26:55.770Z,21.75
2018-06-22T12:27:55.771Z,21.75
2018-06-22T12:28:55.563Z,21.75
2018-06-22T12:29:55.808Z,21.75
2018-06-22T12:30:55.744Z,21.75
2018-06-22T12:31:55.831Z,21.75
2018-06-22T12:32:56.016Z,21.75
2018-06-22T12:33:55.763Z,21.75
2018-06-22T12:34:55.668Z,21.75
2018-06-22T12:35:55.826Z,21.75
2018-06-22T12:36:55.615Z,21.75
2018-06-22T12:37:55.950Z,21.75
2018-06-22T12:38:55.885Z,21.75
2018-06-22T12:39:56.155Z,21.75
2018-06-22T12:40:56.048Z,21.75
2018-06-22T12:41:55.946Z,21.75
2018-06-22T12:42:56.084Z,21.75
2018-06-22T12:43:55.783Z,21.75
2018-06-22T12:44:55.904Z,21.75
2018-06-22T12:45:55.670Z,21.75
2018-06-22T12:46:55.727Z,21.75
2018-06-22T12:47:55.750Z,21.75
2018-06-22T12:48:56.516Z,21.75
2018-06-22T12:49:55.743Z,21.75
2018-06-22T12:50:55.939Z,21.75
2018-06-22T12:51:55.835Z,21.75
2018-06-22T12:52:55.796Z,21.75
2018-06-22T12:53:55.700Z,21.75
2018-06-22T12:54:55.654Z,21.75
2018-06-22T12:55:55.718Z,21.75
2018-06-22T12:56:55.759Z,21.75
2018-06-22T12:57:55.671Z,21.75
2018-06-22T12:58:55.728Z,21.75
2018-06-22T12:59:55.786Z,21.75
2018-06-22T13:00:55.859Z,21.75
2018-06-22T13:01:55.577Z,21.75
2018-06-22T13:02:55.665Z,21.75
2018-06-22T13:03:55.959Z,21.75